createdAt,value
2023-02-27T00:00:00.548Z,63
2023-02-27T00:15:00.574Z,63
2023-02-27T00:30:00.870Z,63
2023-02-27T00:45:00.879Z,63
2023-02-27T01:00:00.632Z,64
2023-02-27T01:15:00.663Z,64
2023-02-27T01:30:01.022Z,65
2023-02-27T01:45:00.585Z,65
2023-02-27T02:00:00.546Z,65
2023-02-27T02:15:00.540Z,65
2023-02-27T02:30:00.559Z,66
2023-02-27T02:45:00.623Z,66
2023-02-27T03:00:00.671Z,66
2023-02-27T03:15:00.645Z,67
2023-02-27T03:30:00.711Z,67
2023-02-27T03:45:00.715Z,67
2023-02-27T04:00:00.632Z,67
2023-02-27T04:15:00.575Z,68
2023-02-27T04:30:00.688Z,68
2023-02-27T04:45:00.632Z,68
2023-02-27T05:00:00.671Z,68
2023-02-27T05:15:00.564Z,68
2023-02-27T05:30:00.512Z,68
2023-02-27T05:45:00.642Z,68
2023-02-27T06:00:00.573Z,68
2023-02-27T06:15:00.558Z,69
2023-02-27T06:30:00.623Z,69
2023-02-27T06:45:00.625Z,70
2023-02-27T07:00:00.556Z,70
2023-02-27T07:15:00.578Z,70
2023-02-27T07:30:00.551Z,70
2023-02-27T07:45:00.691Z,70
2023-02-27T08:00:00.704Z,70
2023-02-27T08:15:00.578Z,69
2023-02-27T08:30:00.694Z,66
2023-02-27T08:45:00.606Z,65
2023-02-27T09:00:00.657Z,63
2023-02-27T09:15:00.597Z,63
2023-02-27T09:30:00.607Z,62
2023-02-27T09:45:00.638Z,62
2023-02-27T10:00:00.757Z,62
2023-02-27T10:15:00.586Z,59
2023-02-27T10:30:00.564Z,58
2023-02-27T10:45:00.620Z,58
2023-02-27T11:00:00.635Z,58
2023-02-27T11:15:00.557Z,58
2023-02-27T11:30:00.583Z,57
2023-02-27T11:45:00.713Z,56
2023-02-27T12:00:00.584Z,55
2023-02-27T12:15:00.793Z,56
2023-02-27T12:30:00.573Z,55
2023-02-27T12:45:00.611Z,54
2023-02-27T13:00:00.810Z,53
2023-02-27T13:15:00.564Z,53
2023-02-27T13:30:00.592Z,54
2023-02-27T13:45:00.644Z,53
2023-02-27T14:00:00.753Z,53
2023-02-27T14:15:00.717Z,54
2023-02-27T14:30:00.691Z,53
2023-02-27T14:45:00.830Z,53
2023-02-27T15:00:00.779Z,53
2023-02-27T15:15:00.959Z,53
2023-02-27T15:30:00.955Z,54
2023-02-27T15:45:00.771Z,53
2023-02-27T16:00:00.777Z,54
2023-02-27T16:15:00.733Z,55
2023-02-27T16:30:00.753Z,55
2023-02-27T16:45:00.726Z,55
2023-02-27T17:00:00.734Z,55
2023-02-27T17:15:00.786Z,55
2023-02-27T17:30:00.697Z,56
2023-02-27T17:45:00.714Z,56
2023-02-27T18:00:00.845Z,56
2023-02-27T18:15:00.703Z,57
2023-02-27T18:30:00.825Z,57
2023-02-27T18:45:00.712Z,58
2023-02-27T19:00:00.796Z,58
2023-02-27T19:15:00.718Z,58
2023-02-27T19:30:00.797Z,59
2023-02-27T19:45:00.714Z,59
2023-02-27T20:00:00.780Z,59
2023-02-27T20:15:00.745Z,59
2023-02-27T20:30:00.784Z,59
2023-02-27T20:45:00.718Z,59
2023-02-27T21:00:00.732Z,60
2023-02-27T21:15:00.746Z,60
2023-02-27T21:30:00.826Z,60
2023-02-27T21:45:00.736Z,60
2023-02-27T22:00:00.737Z,60
2023-02-27T22:15:00.705Z,60
2023-02-27T22:30:00.793Z,61
2023-02-27T22:45:00.741Z,61
2023-02-27T23:00:00.767Z,61
2023-02-27T23:15:00.848Z,62
2023-02-27T23:30:00.936Z,62
2023-02-27T23:45:00.732Z,62
